createdAt,value
2019-03-04T22:16:17.932Z,98702.80
2019-03-04T22:18:50.057Z,98718.25
2019-03-04T22:21:20.446Z,98701.45
2019-03-04T22:23:51.222Z,98713.94
2019-03-04T22:26:21.911Z,98716.23
2019-03-04T22:28:54.959Z,98716.51
2019-03-04T22:31:25.395Z,98723.55
2019-03-04T22:34:03.098Z,98726.55
2019-03-04T22:36:50.661Z,98732.74
2019-03-04T22:39:21.819Z,98737.95
2019-03-04T22:42:00.337Z,98723.77
2019-03-04T22:44:36.867Z,98737.66
2019-03-04T22:47:17.058Z,98711.13
2019-03-04T22:49:47.602Z,98739.48
2019-03-04T22:52:22.619Z,98753.80
2019-03-04T22:55:15.307Z,98752.75
2019-03-04T22:57:47.649Z,98731.99
2019-03-04T23:01:21.629Z,98745.77
2019-03-04T23:04:03.723Z,98752.80
2019-03-04T23:06:38.274Z,98778.70
2019-03-04T23:09:11.603Z,98787.83
2019-03-04T23:11:46.994Z,98783.43
2019-03-04T23:14:26.330Z,98795.16
2019-03-04T23:16:56.733Z,98795.16
2019-03-04T23:19:34.623Z,98805.94
2019-03-04T23:22:05.287Z,98797.77
2019-03-04T23:24:37.400Z,98808.79
2019-03-04T23:27:08.891Z,98816.44
2019-03-04T23:29:39.418Z,98799.98
2019-03-04T23:32:10.043Z,98800.20
2019-03-04T23:34:41.036Z,98803.73
2019-03-04T23:37:12.079Z,98808.14
2019-03-04T23:39:43.120Z,98795.70
2019-03-04T23:42:13.606Z,98794.25
2019-03-04T23:44:47.541Z,98802.94
2019-03-04T23:47:18.080Z,98792.02
2019-03-04T23:49:48.860Z,98786.20
2019-03-04T23:52:19.228Z,98761.95
2019-03-04T23:54:49.667Z,98778.55
2019-03-04T23:57:20.081Z,98787.00
2019-03-04T23:59:52.311Z,98776.68
